sensor_id;sensor_type;location;lat;lon;timestamp;P1;durP1;ratioP1;P2;durP2;ratioP2
13012;SDS011;22580;57.670;12.006;2022-09-13T00:02:17;1.58;;;1.48;;
13012;SDS011;22580;57.670;12.006;2022-09-13T00:04:46;1.60;;;1.50;;
13012;SDS011;22580;57.670;12.006;2022-09-13T00:07:13;2.03;;;1.77;;
13012;SDS011;22580;57.670;12.006;2022-09-13T00:09:40;1.70;;;1.60;;
13012;SDS011;22580;57.670;12.006;2022-09-13T00:12:07;1.90;;;1.80;;
13012;SDS011;22580;57.670;12.006;2022-09-13T00:14:35;2.47;;;1.98;;
13012;SDS011;22580;57.670;12.006;2022-09-13T00:17:02;2.97;;;1.90;;
13012;SDS011;22580;57.670;12.006;2022-09-13T00:19:28;2.28;;;1.80;;
13012;SDS011;22580;57.670;12.006;2022-09-13T00:21:55;2.25;;;2.05;;
13012;SDS011;22580;57.670;12.006;2022-09-13T00:24:22;1.90;;;1.75;;
13012;SDS011;22580;57.670;12.006;2022-09-13T00:26:49;2.53;;;1.85;;
13012;SDS011;22580;57.670;12.006;2022-09-13T00:29:16;2.28;;;1.92;;
13012;SDS011;22580;57.670;12.006;2022-09-13T00:31:44;2.78;;;2.15;;
13012;SDS011;22580;57.670;12.006;2022-09-13T00:34:11;1.90;;;1.80;;
13012;SDS011;22580;57.670;12.006;2022-09-13T00:36:38;2.40;;;1.90;;
13012;SDS011;22580;57.670;12.006;2022-09-13T00:39:05;2.13;;;1.92;;
13012;SDS011;22580;57.670;12.006;2022-09-13T00:41:32;2.05;;;1.83;;
13012;SDS011;22580;57.670;12.006;2022-09-13T00:43:59;2.13;;;1.60;;
13012;SDS011;22580;57.670;12.006;2022-09-13T00:46:29;1.90;;;1.63;;
13012;SDS011;22580;57.670;12.006;2022-09-13T00:49:02;1.77;;;1.65;;
13012;SDS011;22580;57.670;12.006;2022-09-13T00:51:37;1.60;;;1.50;;
13012;SDS011;22580;57.670;12.006;2022-09-13T00:54:06;1.92;;;1.60;;
13012;SDS011;22580;57.670;12.006;2022-09-13T00:56:34;2.03;;;1.80;;
13012;SDS011;22580;57.670;12.006;2022-09-13T00:59:05;2.13;;;1.70;;
13012;SDS011;22580;57.670;12.006;2022-09-13T01:01:36;1.60;;;1.50;;
13012;SDS011;22580;57.670;12.006;2022-09-13T01:04:11;1.77;;;1.67;;
13012;SDS011;22580;57.670;12.006;2022-09-13T01:06:37;1.40;;;1.30;;
13012;SDS011;22580;57.670;12.006;2022-09-13T01:09:05;1.73;;;1.63;;
13012;SDS011;22580;57.670;12.006;2022-09-13T01:11:36;1.52;;;1.42;;
13012;SDS011;22580;57.670;12.006;2022-09-13T01:14:06;2.13;;;1.90;;
13012;SDS011;22580;57.670;12.006;2022-09-13T01:16:35;1.70;;;1.60;;
13012;SDS011;22580;57.670;12.006;2022-09-13T01:19:02;1.52;;;1.42;;
13012;SDS011;22580;57.670;12.006;2022-09-13T01:28:00;1.92;;;1.83;;
13012;SDS011;22580;57.670;12.006;2022-09-13T01:30:41;1.63;;;1.52;;
13012;SDS011;22580;57.670;12.006;2022-09-13T01:33:16;1.77;;;1.38;;
13012;SDS011;22580;57.670;12.006;2022-09-13T01:36:17;1.88;;;1.73;;
13012;SDS011;22580;57.670;12.006;2022-09-13T01:38:58;2.03;;;1.83;;
13012;SDS011;22580;57.670;12.006;2022-09-13T01:41:40;1.45;;;1.35;;
13012;SDS011;22580;57.670;12.006;2022-09-13T01:44:29;2.90;;;2.00;;
13012;SDS011;22580;57.670;12.006;2022-09-13T01:47:12;1.75;;;1.50;;
13012;SDS011;22580;57.670;12.006;2022-09-13T01:49:52;1.30;;;1.20;;
13012;SDS011;22580;57.670;12.006;2022-09-13T01:52:29;1.42;;;1.27;;
13012;SDS011;22580;57.670;12.006;2022-09-13T01:55:07;1.67;;;1.58;;
13012;SDS011;22580;57.670;12.006;2022-09-13T01:57:44;1.92;;;1.60;;
13012;SDS011;22580;57.670;12.006;2022-09-13T02:00:16;1.58;;;1.48;;
13012;SDS011;22580;57.670;12.006;2022-09-13T02:02:46;2.17;;;1.70;;
13012;SDS011;22580;57.670;12.006;2022-09-13T02:05:17;1.38;;;1.30;;
13012;SDS011;22580;57.670;12.006;2022-09-13T02:07:52;0.70;;;0.70;;
13012;SDS011;22580;57.670;12.006;2022-09-13T02:10:23;1.05;;;0.93;;
13012;SDS011;22580;57.670;12.006;2022-09-13T02:12:55;0.88;;;0.88;;
13012;SDS011;22580;57.670;12.006;2022-09-13T02:15:24;0.82;;;0.82;;
13012;SDS011;22580;57.670;12.006;2022-09-13T02:17:57;0.80;;;0.80;;
13012;SDS011;22580;57.670;12.006;2022-09-13T02:20:28;0.70;;;0.70;;
13012;SDS011;22580;57.670;12.006;2022-09-13T02:23:01;0.75;;;0.75;;
13012;SDS011;22580;57.670;12.006;2022-09-13T02:25:30;0.77;;;0.70;;
13012;SDS011;22580;57.670;12.006;2022-09-13T02:28:02;1.20;;;1.00;;
13012;SDS011;22580;57.670;12.006;2022-09-13T02:30:33;1.02;;;0.98;;
13012;SDS011;22580;57.670;12.006;2022-09-13T02:33:09;1.48;;;1.10;;
13012;SDS011;22580;57.670;12.006;2022-09-13T02:35:39;0.95;;;0.85;;
13012;SDS011;22580;57.670;12.006;2022-09-13T02:38:14;2.20;;;1.30;;
13012;SDS011;22580;57.670;12.006;2022-09-13T02:40:48;2.42;;;1.05;;
13012;SDS011;22580;57.670;12.006;2022-09-13T02:43:21;1.50;;;1.40;;
13012;SDS011;22580;57.670;12.006;2022-09-13T02:45:55;1.50;;;1.38;;
13012;SDS011;22580;57.670;12.006;2022-09-13T02:48:38;1.77;;;1.60;;
13012;SDS011;22580;57.670;12.006;2022-09-13T02:51:15;1.50;;;1.40;;
13012;SDS011;22580;57.670;12.006;2022-09-13T02:53:49;2.30;;;1.70;;
13012;SDS011;22580;57.670;12.006;2022-09-13T02:56:28;2.47;;;1.67;;
13012;SDS011;22580;57.670;12.006;2022-09-13T02:59:01;3.80;;;2.05;;
13012;SDS011;22580;57.670;12.006;2022-09-13T03:01:33;3.38;;;1.95;;
13012;SDS011;22580;57.670;12.006;2022-09-13T03:04:04;3.05;;;1.80;;
13012;SDS011;22580;57.670;12.006;2022-09-13T03:06:31;3.70;;;2.00;;
13012;SDS011;22580;57.670;12.006;2022-09-13T03:08:58;3.15;;;2.17;;
13012;SDS011;22580;57.670;12.006;2022-09-13T03:11:33;4.03;;;2.00;;
13012;SDS011;22580;57.670;12.006;2022-09-13T03:14:19;2.25;;;1.88;;
13012;SDS011;22580;57.670;12.006;2022-09-13T03:17:04;5.32;;;2.03;;
13012;SDS011;22580;57.670;12.006;2022-09-13T03:22:45;2.30;;;1.73;;
13012;SDS011;22580;57.670;12.006;2022-09-13T03:25:27;3.17;;;1.70;;
13012;SDS011;22580;57.670;12.006;2022-09-13T03:28:03;1.30;;;1.20;;
13012;SDS011;22580;57.670;12.006;2022-09-13T03:30:40;1.48;;;0.95;;
13012;SDS011;22580;57.670;12.006;2022-09-13T03:33:16;1.17;;;1.02;;
13012;SDS011;22580;57.670;12.006;2022-09-13T03:35:53;2.15;;;0.98;;
13012;SDS011;22580;57.670;12.006;2022-09-13T03:38:28;2.08;;;1.02;;
13012;SDS011;22580;57.670;12.006;2022-09-13T03:40:59;1.50;;;0.90;;
13012;SDS011;22580;57.670;12.006;2022-09-13T03:43:30;0.90;;;0.55;;
13012;SDS011;22580;57.670;12.006;2022-09-13T03:46:02;0.95;;;0.60;;
13012;SDS011;22580;57.670;12.006;2022-09-13T03:48:31;0.57;;;0.50;;
13012;SDS011;22580;57.670;12.006;2022-09-13T03:51:03;0.40;;;0.38;;
13012;SDS011;22580;57.670;12.006;2022-09-13T03:53:31;0.30;;;0.30;;
13012;SDS011;22580;57.670;12.006;2022-09-13T03:56:10;0.35;;;0.35;;
13012;SDS011;22580;57.670;12.006;2022-09-13T03:58:38;1.27;;;0.73;;
13012;SDS011;22580;57.670;12.006;2022-09-13T04:01:05;0.73;;;0.50;;
13012;SDS011;22580;57.670;12.006;2022-09-13T04:03:32;0.77;;;0.68;;
13012;SDS011;22580;57.670;12.006;2022-09-13T04:05:58;0.65;;;0.50;;
13012;SDS011;22580;57.670;12.006;2022-09-13T04:08:27;0.75;;;0.50;;
13012;SDS011;22580;57.670;12.006;2022-09-13T04:10:54;1.27;;;0.60;;
13012;SDS011;22580;57.670;12.006;2022-09-13T04:13:21;0.68;;;0.52;;
13012;SDS011;22580;57.670;12.006;2022-09-13T04:15:48;0.57;;;0.52;;
13012;SDS011;22580;57.670;12.006;2022-09-13T04:18:15;0.65;;;0.57;;
13012;SDS011;22580;57.670;12.006;2022-09-13T04:20:42;0.60;;;0.60;;
13012;SDS011;22580;57.670;12.006;2022-09-13T04:23:09;0.77;;;0.50;;
13012;SDS011;22580;57.670;12.006;2022-09-13T04:25:38;0.90;;;0.45;;
13012;SDS011;22580;57.670;12.006;2022-09-13T04:28:05;0.80;;;0.60;;
13012;SDS011;22580;57.670;12.006;2022-09-13T04:30:33;0.88;;;0.70;;
13012;SDS011;22580;57.670;12.006;2022-09-13T04:33:00;1.20;;;0.50;;
13012;SDS011;22580;57.670;12.006;2022-09-13T04:35:27;1.02;;;0.73;;
13012;SDS011;22580;57.670;12.006;2022-09-13T04:37:54;0.75;;;0.75;;
13012;SDS011;22580;57.670;12.006;2022-09-13T04:40:23;1.38;;;0.60;;
13012;SDS011;22580;57.670;12.006;2022-09-13T04:42:51;0.52;;;0.50;;
13012;SDS011;22580;57.670;12.006;2022-09-13T04:45:18;1.45;;;0.60;;
13012;SDS011;22580;57.670;12.006;2022-09-13T04:47:49;0.40;;;0.40;;
13012;SDS011;22580;57.670;12.006;2022-09-13T04:50:17;0.63;;;0.40;;
13012;SDS011;22580;57.670;12.006;2022-09-13T04:52:45;0.40;;;0.40;;
13012;SDS011;22580;57.670;12.006;2022-09-13T04:55:13;0.40;;;0.40;;
13012;SDS011;22580;57.670;12.006;2022-09-13T04:57:40;0.50;;;0.50;;
13012;SDS011;22580;57.670;12.006;2022-09-13T05:00:09;0.43;;;0.43;;
13012;SDS011;22580;57.670;12.006;2022-09-13T05:02:36;0.50;;;0.50;;
13012;SDS011;22580;57.670;12.006;2022-09-13T05:05:03;0.65;;;0.50;;
13012;SDS011;22580;57.670;12.006;2022-09-13T05:07:31;1.20;;;0.70;;
13012;SDS011;22580;57.670;12.006;2022-09-13T05:09:58;0.43;;;0.35;;
13012;SDS011;22580;57.670;12.006;2022-09-13T05:12:25;0.50;;;0.50;;
13012;SDS011;22580;57.670;12.006;2022-09-13T05:14:51;0.63;;;0.43;;
13012;SDS011;22580;57.670;12.006;2022-09-13T05:17:20;0.50;;;0.50;;
13012;SDS011;22580;57.670;12.006;2022-09-13T05:19:47;0.65;;;0.40;;
13012;SDS011;22580;57.670;12.006;2022-09-13T05:22:14;0.40;;;0.40;;
13012;SDS011;22580;57.670;12.006;2022-09-13T05:24:41;0.38;;;0.38;;
13012;SDS011;22580;57.670;12.006;2022-09-13T05:27:07;0.30;;;0.22;;
13012;SDS011;22580;57.670;12.006;2022-09-13T05:29:35;0.20;;;0.10;;
13012;SDS011;22580;57.670;12.006;2022-09-13T05:32:02;0.17;;;0.17;;
13012;SDS011;22580;57.670;12.006;2022-09-13T05:34:31;0.45;;;0.30;;
13012;SDS011;22580;57.670;12.006;2022-09-13T05:36:57;0.25;;;0.25;;
13012;SDS011;22580;57.670;12.006;2022-09-13T05:39:24;0.10;;;0.10;;
13012;SDS011;22580;57.670;12.006;2022-09-13T05:41:51;0.20;;;0.20;;
13012;SDS011;22580;57.670;12.006;2022-09-13T05:44:18;0.13;;;0.13;;
13012;SDS011;22580;57.670;12.006;2022-09-13T05:46:46;0.30;;;0.30;;
13012;SDS011;22580;57.670;12.006;2022-09-13T05:49:13;0.30;;;0.30;;
13012;SDS011;22580;57.670;12.006;2022-09-13T05:51:42;0.93;;;0.55;;
13012;SDS011;22580;57.670;12.006;2022-09-13T05:54:10;0.57;;;0.30;;
13012;SDS011;22580;57.670;12.006;2022-09-13T05:56:38;0.68;;;0.35;;
13012;SDS011;22580;57.670;12.006;2022-09-13T05:59:05;0.25;;;0.22;;
13012;SDS011;22580;57.670;12.006;2022-09-13T06:01:33;0.75;;;0.40;;
13012;SDS011;22580;57.670;12.006;2022-09-13T06:04:00;1.50;;;0.60;;
13012;SDS011;22580;57.670;12.006;2022-09-13T06:06:27;0.40;;;0.40;;
13012;SDS011;22580;57.670;12.006;2022-09-13T06:08:55;0.50;;;0.40;;
13012;SDS011;22580;57.670;12.006;2022-09-13T06:11:23;0.70;;;0.40;;
13012;SDS011;22580;57.670;12.006;2022-09-13T06:13:51;0.73;;;0.30;;
13012;SDS011;22580;57.670;12.006;2022-09-13T06:16:18;0.20;;;0.20;;
13012;SDS011;22580;57.670;12.006;2022-09-13T06:18:46;0.20;;;0.20;;
13012;SDS011;22580;57.670;12.006;2022-09-13T06:21:14;0.32;;;0.32;;
13012;SDS011;22580;57.670;12.006;2022-09-13T06:23:42;0.63;;;0.50;;
13012;SDS011;22580;57.670;12.006;2022-09-13T06:26:11;0.50;;;0.50;;
13012;SDS011;22580;57.670;12.006;2022-09-13T06:28:40;0.90;;;0.50;;
13012;SDS011;22580;57.670;12.006;2022-09-13T06:31:08;0.70;;;0.32;;
13012;SDS011;22580;57.670;12.006;2022-09-13T06:33:37;0.65;;;0.50;;
13012;SDS011;22580;57.670;12.006;2022-09-13T06:36:07;0.47;;;0.30;;
13012;SDS011;22580;57.670;12.006;2022-09-13T06:38:36;0.40;;;0.20;;
13012;SDS011;22580;57.670;12.006;2022-09-13T06:41:06;0.90;;;0.40;;
13012;SDS011;22580;57.670;12.006;2022-09-13T06:43:36;0.20;;;0.20;;
13012;SDS011;22580;57.670;12.006;2022-09-13T06:46:04;0.60;;;0.20;;
13012;SDS011;22580;57.670;12.006;2022-09-13T06:48:32;0.43;;;0.30;;
13012;SDS011;22580;57.670;12.006;2022-09-13T06:51:00;0.50;;;0.30;;
13012;SDS011;22580;57.670;12.006;2022-09-13T06:53:30;1.15;;;0.35;;
13012;SDS011;22580;57.670;12.006;2022-09-13T06:56:01;0.30;;;0.17;;
13012;SDS011;22580;57.670;12.006;2022-09-13T06:58:30;0.30;;;0.30;;
13012;SDS011;22580;57.670;12.006;2022-09-13T07:01:06;2.17;;;0.40;;
13012;SDS011;22580;57.670;12.006;2022-09-13T07:03:35;0.22;;;0.22;;
13012;SDS011;22580;57.670;12.006;2022-09-13T07:06:06;0.75;;;0.32;;
13012;SDS011;22580;57.670;12.006;2022-09-13T07:08:34;1.80;;;0.50;;
13012;SDS011;22580;57.670;12.006;2022-09-13T07:11:01;0.65;;;0.40;;
13012;SDS011;22580;57.670;12.006;2022-09-13T07:13:28;0.88;;;0.50;;
13012;SDS011;22580;57.670;12.006;2022-09-13T07:15:55;1.60;;;0.50;;
13012;SDS011;22580;57.670;12.006;2022-09-13T07:18:24;1.48;;;0.50;;
13012;SDS011;22580;57.670;12.006;2022-09-13T07:20:50;0.60;;;0.30;;
13012;SDS011;22580;57.670;12.006;2022-09-13T07:23:17;0.50;;;0.40;;
13012;SDS011;22580;57.670;12.006;2022-09-13T07:25:52;0.77;;;0.30;;
13012;SDS011;22580;57.670;12.006;2022-09-13T07:28:20;0.75;;;0.30;;
13012;SDS011;22580;57.670;12.006;2022-09-13T07:30:47;0.50;;;0.30;;
13012;SDS011;22580;57.670;12.006;2022-09-13T07:33:14;1.58;;;0.43;;
13012;SDS011;22580;57.670;12.006;2022-09-13T07:35:42;1.05;;;0.40;;
13012;SDS011;22580;57.670;12.006;2022-09-13T07:38:09;0.95;;;0.50;;
13012;SDS011;22580;57.670;12.006;2022-09-13T07:40:36;2.05;;;0.60;;
13012;SDS011;22580;57.670;12.006;2022-09-13T07:43:03;1.25;;;1.00;;
13012;SDS011;22580;57.670;12.006;2022-09-13T07:45:30;1.20;;;0.90;;
13012;SDS011;22580;57.670;12.006;2022-09-13T07:47:57;1.15;;;0.70;;
13012;SDS011;22580;57.670;12.006;2022-09-13T07:50:27;1.42;;;0.63;;
13012;SDS011;22580;57.670;12.006;2022-09-13T07:52:55;1.70;;;0.70;;
13012;SDS011;22580;57.670;12.006;2022-09-13T07:55:23;1.52;;;0.50;;
13012;SDS011;22580;57.670;12.006;2022-09-13T07:57:50;1.73;;;0.63;;
13012;SDS011;22580;57.670;12.006;2022-09-13T08:00:18;2.22;;;0.70;;
13012;SDS011;22580;57.670;12.006;2022-09-13T08:02:45;1.02;;;0.50;;
13012;SDS011;22580;57.670;12.006;2022-09-13T08:05:12;1.85;;;0.65;;
13012;SDS011;22580;57.670;12.006;2022-09-13T08:07:39;1.15;;;0.77;;
13012;SDS011;22580;57.670;12.006;2022-09-13T08:10:08;3.00;;;1.00;;
13012;SDS011;22580;57.670;12.006;2022-09-13T08:12:35;1.38;;;0.82;;
13012;SDS011;22580;57.670;12.006;2022-09-13T08:15:02;0.38;;;0.38;;
13012;SDS011;22580;57.670;12.006;2022-09-13T08:17:30;2.22;;;0.95;;
13012;SDS011;22580;57.670;12.006;2022-09-13T08:19:57;2.47;;;0.70;;
13012;SDS011;22580;57.670;12.006;2022-09-13T08:22:24;2.65;;;0.73;;
13012;SDS011;22580;57.670;12.006;2022-09-13T08:24:51;1.00;;;0.65;;
13012;SDS011;22580;57.670;12.006;2022-09-13T08:27:22;2.78;;;1.00;;
13012;SDS011;22580;57.670;12.006;2022-09-13T08:29:50;1.60;;;0.90;;
13012;SDS011;22580;57.670;12.006;2022-09-13T08:32:16;1.67;;;0.68;;
13012;SDS011;22580;57.670;12.006;2022-09-13T08:34:43;1.75;;;0.70;;
13012;SDS011;22580;57.670;12.006;2022-09-13T08:37:10;4.60;;;2.47;;
13012;SDS011;22580;57.670;12.006;2022-09-13T08:39:38;7.72;;;2.38;;
13012;SDS011;22580;57.670;12.006;2022-09-13T08:44:57;4.40;;;1.98;;
13012;SDS011;22580;57.670;12.006;2022-09-13T08:47:30;3.53;;;1.45;;
13012;SDS011;22580;57.670;12.006;2022-09-13T08:50:05;2.85;;;1.40;;
13012;SDS011;22580;57.670;12.006;2022-09-13T08:52:45;1.85;;;1.20;;
13012;SDS011;22580;57.670;12.006;2022-09-13T08:55:24;3.35;;;1.20;;
13012;SDS011;22580;57.670;12.006;2022-09-13T08:58:03;2.70;;;1.10;;
13012;SDS011;22580;57.670;12.006;2022-09-13T09:00:42;1.50;;;1.00;;
13012;SDS011;22580;57.670;12.006;2022-09-13T09:03:14;3.58;;;1.00;;
13012;SDS011;22580;57.670;12.006;2022-09-13T09:05:47;0.98;;;0.45;;
13012;SDS011;22580;57.670;12.006;2022-09-13T09:08:19;1.73;;;0.60;;
13012;SDS011;22580;57.670;12.006;2022-09-13T09:10:56;1.92;;;0.82;;
13012;SDS011;22580;57.670;12.006;2022-09-13T09:13:28;3.08;;;0.80;;
13012;SDS011;22580;57.670;12.006;2022-09-13T09:15:59;0.93;;;0.55;;
13012;SDS011;22580;57.670;12.006;2022-09-13T09:18:31;0.88;;;0.50;;
13012;SDS011;22580;57.670;12.006;2022-09-13T09:21:02;1.52;;;0.90;;
13012;SDS011;22580;57.670;12.006;2022-09-13T09:23:37;3.35;;;0.75;;
13012;SDS011;22580;57.670;12.006;2022-09-13T09:26:12;1.23;;;0.60;;
13012;SDS011;22580;57.670;12.006;2022-09-13T09:28:43;0.75;;;0.50;;
13012;SDS011;22580;57.670;12.006;2022-09-13T09:31:13;2.38;;;0.60;;
13012;SDS011;22580;57.670;12.006;2022-09-13T09:33:49;1.05;;;0.60;;
13012;SDS011;22580;57.670;12.006;2022-09-13T09:36:25;0.45;;;0.30;;
13012;SDS011;22580;57.670;12.006;2022-09-13T09:39:02;1.23;;;0.45;;
13012;SDS011;22580;57.670;12.006;2022-09-13T09:41:30;0.57;;;0.30;;
13012;SDS011;22580;57.670;12.006;2022-09-13T09:44:03;0.75;;;0.40;;
13012;SDS011;22580;57.670;12.006;2022-09-13T09:46:42;1.08;;;0.60;;
13012;SDS011;22580;57.670;12.006;2022-09-13T09:49:13;1.20;;;0.70;;
13012;SDS011;22580;57.670;12.006;2022-09-13T09:51:56;2.38;;;0.65;;
13012;SDS011;22580;57.670;12.006;2022-09-13T09:54:24;1.10;;;0.63;;
13012;SDS011;22580;57.670;12.006;2022-09-13T09:56:53;0.90;;;0.63;;
13012;SDS011;22580;57.670;12.006;2022-09-13T09:59:26;0.68;;;0.45;;
13012;SDS011;22580;57.670;12.006;2022-09-13T10:01:56;1.48;;;0.52;;
13012;SDS011;22580;57.670;12.006;2022-09-13T10:04:24;2.33;;;0.90;;
13012;SDS011;22580;57.670;12.006;2022-09-13T10:07:06;1.75;;;0.95;;
13012;SDS011;22580;57.670;12.006;2022-09-13T10:09:52;1.30;;;1.08;;
13012;SDS011;22580;57.670;12.006;2022-09-13T10:12:27;2.60;;;1.00;;
13012;SDS011;22580;57.670;12.006;2022-09-13T10:15:03;2.03;;;1.10;;
13012;SDS011;22580;57.670;12.006;2022-09-13T10:17:32;1.25;;;0.82;;
13012;SDS011;22580;57.670;12.006;2022-09-13T10:20:00;2.13;;;0.85;;
13012;SDS011;22580;57.670;12.006;2022-09-13T10:22:28;1.02;;;0.52;;
13012;SDS011;22580;57.670;12.006;2022-09-13T10:25:09;1.05;;;0.60;;
13012;SDS011;22580;57.670;12.006;2022-09-13T10:27:40;1.30;;;0.50;;
13012;SDS011;22580;57.670;12.006;2022-09-13T10:30:22;0.68;;;0.45;;
13012;SDS011;22580;57.670;12.006;2022-09-13T10:32:57;1.33;;;0.60;;
13012;SDS011;22580;57.670;12.006;2022-09-13T10:35:24;0.60;;;0.60;;
13012;SDS011;22580;57.670;12.006;2022-09-13T10:37:52;1.15;;;0.93;;
13012;SDS011;22580;57.670;12.006;2022-09-13T10:40:21;2.10;;;0.90;;
13012;SDS011;22580;57.670;12.006;2022-09-13T10:42:52;6.93;;;1.33;;
13012;SDS011;22580;57.670;12.006;2022-09-13T10:45:23;0.95;;;0.73;;
13012;SDS011;22580;57.670;12.006;2022-09-13T10:47:53;2.05;;;0.70;;
13012;SDS011;22580;57.670;12.006;2022-09-13T10:50:24;1.67;;;0.90;;
13012;SDS011;22580;57.670;12.006;2022-09-13T10:52:53;2.55;;;1.30;;
13012;SDS011;22580;57.670;12.006;2022-09-13T10:55:25;2.90;;;1.63;;
13012;SDS011;22580;57.670;12.006;2022-09-13T10:58:12;4.00;;;1.80;;
13012;SDS011;22580;57.670;12.006;2022-09-13T11:00:53;1.98;;;1.17;;
13012;SDS011;22580;57.670;12.006;2022-09-13T11:04:01;1.30;;;0.73;;
13012;SDS011;22580;57.670;12.006;2022-09-13T11:06:49;1.75;;;0.60;;
13012;SDS011;22580;57.670;12.006;2022-09-13T11:09:22;2.30;;;0.73;;
13012;SDS011;22580;57.670;12.006;2022-09-13T11:11:58;1.52;;;0.60;;
13012;SDS011;22580;57.670;12.006;2022-09-13T11:14:38;1.70;;;0.70;;
13012;SDS011;22580;57.670;12.006;2022-09-13T11:17:18;1.75;;;0.80;;
13012;SDS011;22580;57.670;12.006;2022-09-13T11:20:03;2.28;;;0.80;;
13012;SDS011;22580;57.670;12.006;2022-09-13T11:22:54;2.40;;;0.70;;
13012;SDS011;22580;57.670;12.006;2022-09-13T11:25:47;1.13;;;0.63;;
13012;SDS011;22580;57.670;12.006;2022-09-13T11:28:21;1.42;;;0.50;;
13012;SDS011;22580;57.670;12.006;2022-09-13T11:31:01;1.75;;;0.70;;
13012;SDS011;22580;57.670;12.006;2022-09-13T11:33:38;0.57;;;0.40;;
13012;SDS011;22580;57.670;12.006;2022-09-13T11:39:12;0.43;;;0.30;;
13012;SDS011;22580;57.670;12.006;2022-09-13T11:41:48;0.20;;;0.20;;
13012;SDS011;22580;57.670;12.006;2022-09-13T11:44:31;0.55;;;0.20;;
13012;SDS011;22580;57.670;12.006;2022-09-13T11:47:13;0.70;;;0.20;;
13012;SDS011;22580;57.670;12.006;2022-09-13T11:49:56;0.20;;;0.20;;
13012;SDS011;22580;57.670;12.006;2022-09-13T11:52:38;0.80;;;0.38;;
13012;SDS011;22580;57.670;12.006;2022-09-13T11:55:14;0.10;;;0.10;;
13012;SDS011;22580;57.670;12.006;2022-09-13T11:57:46;0.17;;;0.17;;
13012;SDS011;22580;57.670;12.006;2022-09-13T12:00:21;0.10;;;0.10;;
13012;SDS011;22580;57.670;12.006;2022-09-13T12:02:53;0.05;;;0.00;;
13012;SDS011;22580;57.670;12.006;2022-09-13T12:05:31;0.10;;;0.00;;
13012;SDS011;22580;57.670;12.006;2022-09-13T12:08:03;0.20;;;0.00;;
13012;SDS011;22580;57.670;12.006;2022-09-13T12:10:39;1.08;;;0.60;;
13012;SDS011;22580;57.670;12.006;2022-09-13T12:13:16;0.63;;;0.20;;
13012;SDS011;22580;57.670;12.006;2022-09-13T12:15:46;0.65;;;0.40;;
13012;SDS011;22580;57.670;12.006;2022-09-13T12:18:18;0.75;;;0.40;;
13012;SDS011;22580;57.670;12.006;2022-09-13T12:20:51;0.88;;;0.45;;
13012;SDS011;22580;57.670;12.006;2022-09-13T12:23:22;1.02;;;0.40;;
13012;SDS011;22580;57.670;12.006;2022-09-13T12:25:55;0.80;;;0.50;;
13012;SDS011;22580;57.670;12.006;2022-09-13T12:28:27;0.73;;;0.30;;
13012;SDS011;22580;57.670;12.006;2022-09-13T12:31:00;1.30;;;0.60;;
13012;SDS011;22580;57.670;12.006;2022-09-13T12:33:30;0.25;;;0.25;;
13012;SDS011;22580;57.670;12.006;2022-09-13T12:39:12;0.10;;;0.10;;
13012;SDS011;22580;57.670;12.006;2022-09-13T12:41:57;0.50;;;0.20;;
13012;SDS011;22580;57.670;12.006;2022-09-13T12:45:05;0.50;;;0.40;;
13012;SDS011;22580;57.670;12.006;2022-09-13T12:47:54;0.80;;;0.40;;
13012;SDS011;22580;57.670;12.006;2022-09-13T12:50:45;1.33;;;0.43;;
13012;SDS011;22580;57.670;12.006;2022-09-13T12:53:28;0.65;;;0.30;;
13012;SDS011;22580;57.670;12.006;2022-09-13T12:56:18;0.43;;;0.38;;
13012;SDS011;22580;57.670;12.006;2022-09-13T12:59:00;0.82;;;0.28;;
13012;SDS011;22580;57.670;12.006;2022-09-13T13:01:37;0.50;;;0.30;;
13012;SDS011;22580;57.670;12.006;2022-09-13T13:04:13;0.40;;;0.30;;
13012;SDS011;22580;57.670;12.006;2022-09-13T13:06:46;0.20;;;0.10;;
13012;SDS011;22580;57.670;12.006;2022-09-13T13:09:22;0.47;;;0.30;;
13012;SDS011;22580;57.670;12.006;2022-09-13T13:11:53;0.17;;;0.17;;
13012;SDS011;22580;57.670;12.006;2022-09-13T13:23:17;0.45;;;0.28;;
13012;SDS011;22580;57.670;12.006;2022-09-13T13:25:56;0.35;;;0.15;;
13012;SDS011;22580;57.670;12.006;2022-09-13T13:31:41;0.20;;;0.20;;
13012;SDS011;22580;57.670;12.006;2022-09-13T13:34:27;0.45;;;0.30;;
13012;SDS011;22580;57.670;12.006;2022-09-13T13:36:59;0.35;;;0.22;;
13012;SDS011;22580;57.670;12.006;2022-09-13T13:39:38;0.10;;;0.10;;
13012;SDS011;22580;57.670;12.006;2022-09-13T13:42:18;0.25;;;0.15;;
13012;SDS011;22580;57.670;12.006;2022-09-13T13:45:03;0.35;;;0.15;;
13012;SDS011;22580;57.670;12.006;2022-09-13T13:47:40;0.32;;;0.20;;
13012;SDS011;22580;57.670;12.006;2022-09-13T13:50:29;0.55;;;0.20;;
13012;SDS011;22580;57.670;12.006;2022-09-13T13:52:56;0.35;;;0.13;;
13012;SDS011;22580;57.670;12.006;2022-09-13T13:55:41;0.20;;;0.17;;
13012;SDS011;22580;57.670;12.006;2022-09-13T13:58:14;0.30;;;0.20;;
13012;SDS011;22580;57.670;12.006;2022-09-13T14:00:53;0.10;;;0.10;;
13012;SDS011;22580;57.670;12.006;2022-09-13T14:03:22;0.52;;;0.20;;
13012;SDS011;22580;57.670;12.006;2022-09-13T14:05:56;1.17;;;0.20;;
13012;SDS011;22580;57.670;12.006;2022-09-13T14:08:33;0.77;;;0.30;;
13012;SDS011;22580;57.670;12.006;2022-09-13T14:11:07;0.30;;;0.30;;
13012;SDS011;22580;57.670;12.006;2022-09-13T14:13:50;0.43;;;0.20;;
13012;SDS011;22580;57.670;12.006;2022-09-13T14:16:33;0.30;;;0.10;;
13012;SDS011;22580;57.670;12.006;2022-09-13T14:22:11;0.60;;;0.30;;
13012;SDS011;22580;57.670;12.006;2022-09-13T14:24:40;1.77;;;0.55;;
13012;SDS011;22580;57.670;12.006;2022-09-13T14:27:14;1.35;;;0.68;;
13012;SDS011;22580;57.670;12.006;2022-09-13T14:29:46;2.40;;;1.27;;
13012;SDS011;22580;57.670;12.006;2022-09-13T14:32:16;2.72;;;1.13;;
13012;SDS011;22580;57.670;12.006;2022-09-13T14:34:50;4.03;;;1.20;;
13012;SDS011;22580;57.670;12.006;2022-09-13T14:37:19;4.53;;;1.30;;
13012;SDS011;22580;57.670;12.006;2022-09-13T14:39:55;3.67;;;1.10;;
13012;SDS011;22580;57.670;12.006;2022-09-13T14:42:23;4.60;;;1.63;;
13012;SDS011;22580;57.670;12.006;2022-09-13T14:44:51;5.30;;;1.30;;
13012;SDS011;22580;57.670;12.006;2022-09-13T14:47:21;2.35;;;0.77;;
13012;SDS011;22580;57.670;12.006;2022-09-13T14:49:57;3.60;;;1.50;;
13012;SDS011;22580;57.670;12.006;2022-09-13T14:52:29;3.05;;;1.30;;
13012;SDS011;22580;57.670;12.006;2022-09-13T14:54:59;3.85;;;1.40;;
13012;SDS011;22580;57.670;12.006;2022-09-13T14:57:31;3.83;;;1.38;;
13012;SDS011;22580;57.670;12.006;2022-09-13T15:00:04;3.30;;;1.23;;
13012;SDS011;22580;57.670;12.006;2022-09-13T15:02:35;3.03;;;1.20;;
13012;SDS011;22580;57.670;12.006;2022-09-13T15:05:04;2.42;;;1.13;;
13012;SDS011;22580;57.670;12.006;2022-09-13T15:07:34;3.78;;;1.40;;
13012;SDS011;22580;57.670;12.006;2022-09-13T15:10:07;5.00;;;1.58;;
13012;SDS011;22580;57.670;12.006;2022-09-13T15:12:48;2.97;;;1.42;;
13012;SDS011;22580;57.670;12.006;2022-09-13T15:15:32;3.17;;;1.45;;
13012;SDS011;22580;57.670;12.006;2022-09-13T15:18:02;4.80;;;1.50;;
13012;SDS011;22580;57.670;12.006;2022-09-13T15:20:43;3.35;;;1.30;;
13012;SDS011;22580;57.670;12.006;2022-09-13T15:23:14;4.55;;;1.50;;
13012;SDS011;22580;57.670;12.006;2022-09-13T15:25:46;3.13;;;1.40;;
13012;SDS011;22580;57.670;12.006;2022-09-13T15:28:19;5.13;;;1.70;;
13012;SDS011;22580;57.670;12.006;2022-09-13T15:30:49;6.05;;;2.03;;
13012;SDS011;22580;57.670;12.006;2022-09-13T15:33:27;6.63;;;2.17;;
13012;SDS011;22580;57.670;12.006;2022-09-13T15:36:11;2.33;;;1.25;;
13012;SDS011;22580;57.670;12.006;2022-09-13T15:38:55;6.95;;;2.03;;